Terminal Aerodrome Forecast
Issued by NWS

Home | Current Version | Previous Version | Text Only | Print | Product List | Glossary On
Versions: 1 2 3 4 5 6 7 8 9 10 11 12 13 14
000
FTUS43 KEAX 260500
TAFMKC
TAF
KMKC 260520Z 2606/2706 36009KT P6SM BKN100
     FM261200 35009KT P6SM FEW250
     FM270000 36008KT P6SM OVC080
     FM270400 01005KT P6SM VCSH OVC030=

USA.gov is the U.S. government's official web portal to all federal, state and local government web resources and services.